createdAt,value
2023-01-03T00:01:34.368Z,9.75
2023-01-03T00:04:02.174Z,8.00
2023-01-03T00:06:38.699Z,9.00
2023-01-03T00:09:09.879Z,9.00
2023-01-03T00:11:57.680Z,6.75
2023-01-03T00:14:27.673Z,8.00
2023-01-03T00:16:57.182Z,10.50
2023-01-03T00:19:26.045Z,7.25
2023-01-03T00:21:53.814Z,7.00
2023-01-03T00:24:22.516Z,7.50
2023-01-03T00:26:49.666Z,7.00
2023-01-03T00:29:17.129Z,4.00
2023-01-03T00:31:44.183Z,8.00
2023-01-03T00:34:11.488Z,8.50
2023-01-03T00:36:39.097Z,1.75
2023-01-03T00:39:07.277Z,7.00
2023-01-03T00:41:34.597Z,3.50
2023-01-03T00:44:01.643Z,6.25
2023-01-03T00:46:28.978Z,8.00
2023-01-03T00:48:55.968Z,6.75
2023-01-03T00:51:26.558Z,8.00
2023-01-03T00:53:56.363Z,8.25
2023-01-03T00:56:34.939Z,7.25
2023-01-03T00:59:02.760Z,7.75
2023-01-03T01:01:46.801Z,6.00
2023-01-03T01:04:25.511Z,8.00
2023-01-03T01:07:00.973Z,6.00
2023-01-03T01:09:32.538Z,4.00
2023-01-03T01:11:59.634Z,6.00
2023-01-03T01:14:29.425Z,7.00
2023-01-03T01:17:02.084Z,7.00
2023-01-03T01:19:33.341Z,6.00
2023-01-03T01:22:00.912Z,6.25
2023-01-03T01:24:28.127Z,6.00
2023-01-03T01:26:55.043Z,6.00
2023-01-03T01:29:22.636Z,6.00
2023-01-03T01:31:49.995Z,7.00
2023-01-03T01:34:17.539Z,6.00
2023-01-03T01:36:45.979Z,6.00
2023-01-03T01:39:17.559Z,6.00
2023-01-03T01:42:04.430Z,8.00
2023-01-03T01:44:43.234Z,7.00
2023-01-03T01:47:33.298Z,9.75
2023-01-03T01:50:18.546Z,7.00
2023-01-03T01:53:10.145Z,8.00
2023-01-03T01:55:57.235Z,7.00
2023-01-03T01:58:29.175Z,7.25
2023-01-03T02:00:56.715Z,7.00
2023-01-03T02:03:23.668Z,6.00
2023-01-03T02:05:54.879Z,7.75
2023-01-03T02:08:36.575Z,4.00
2023-01-03T02:11:37.964Z,4.00
2023-01-03T02:14:52.529Z,6.25
2023-01-03T02:18:00.823Z,3.75
2023-01-03T02:20:58.711Z,7.00
2023-01-03T02:24:31.675Z,7.00
2023-01-03T02:27:46.523Z,8.00
2023-01-03T02:30:36.873Z,7.00
2023-01-03T02:33:24.402Z,8.25
2023-01-03T02:36:20.865Z,8.00
2023-01-03T02:38:59.950Z,10.00
2023-01-03T02:41:45.356Z,9.00
2023-01-03T02:44:34.195Z,10.00
2023-01-03T02:47:12.285Z,9.00
2023-01-03T02:49:44.314Z,9.50
2023-01-03T02:52:15.869Z,10.00
2023-01-03T02:54:50.116Z,8.50
2023-01-03T02:57:25.445Z,7.75
2023-01-03T02:59:58.245Z,8.00
2023-01-03T03:02:32.964Z,12.00
2023-01-03T03:05:03.113Z,11.00
2023-01-03T03:07:34.747Z,11.00
2023-01-03T03:10:19.993Z,9.75
2023-01-03T03:13:11.971Z,9.50
2023-01-03T03:15:54.806Z,9.00
2023-01-03T03:18:44.590Z,7.00
2023-01-03T03:21:33.893Z,5.25
2023-01-03T03:24:30.149Z,8.50
2023-01-03T03:27:00.013Z,8.00
2023-01-03T03:29:29.371Z,6.00
2023-01-03T03:31:57.356Z,6.00
2023-01-03T03:34:31.273Z,4.50
2023-01-03T03:37:26.394Z,7.00
2023-01-03T03:40:14.100Z,2.75
2023-01-03T03:43:26.098Z,6.00
2023-01-03T03:46:05.116Z,6.00
2023-01-03T03:49:01.676Z,3.25
2023-01-03T03:51:33.611Z,4.00
2023-01-03T03:54:04.550Z,3.50
2023-01-03T03:56:34.469Z,5.50
2023-01-03T03:59:06.777Z,6.50
2023-01-03T04:01:37.091Z,7.00
2023-01-03T04:04:10.828Z,6.00
2023-01-03T04:06:44.491Z,3.00
2023-01-03T04:09:12.110Z,5.00
2023-01-03T04:11:38.997Z,5.00
2023-01-03T04:14:05.990Z,6.00
2023-01-03T04:16:33.636Z,1.25
2023-01-03T04:19:00.545Z,6.00
2023-01-03T04:21:27.785Z,4.00
2023-01-03T04:23:54.745Z,5.00
2023-01-03T04:26:23.034Z,6.25
2023-01-03T04:28:49.939Z,4.50
2023-01-03T04:31:16.863Z,6.00
2023-01-03T04:33:43.866Z,7.00
2023-01-03T04:36:11.210Z,2.00
2023-01-03T04:38:38.335Z,4.00
2023-01-03T04:41:09.411Z,5.25
2023-01-03T04:43:55.562Z,4.00
2023-01-03T04:46:24.103Z,7.00
2023-01-03T04:48:51.107Z,4.00
2023-01-03T04:51:17.994Z,3.00
2023-01-03T04:53:44.948Z,4.00
2023-01-03T04:56:11.927Z,7.00
2023-01-03T04:58:39.071Z,6.00
2023-01-03T05:01:08.506Z,8.25
2023-01-03T05:03:36.080Z,7.00
2023-01-03T05:06:06.829Z,7.00
2023-01-03T05:08:34.006Z,6.50
2023-01-03T05:11:01.585Z,7.00
2023-01-03T05:13:28.504Z,7.00
2023-01-03T05:15:55.451Z,6.75
2023-01-03T05:18:22.611Z,8.75
2023-01-03T05:21:08.219Z,8.00
2023-01-03T05:23:53.592Z,8.00
2023-01-03T05:26:22.133Z,8.25
2023-01-03T05:28:53.060Z,10.50
2023-01-03T05:31:23.001Z,10.50
2023-01-03T05:33:50.007Z,10.00
2023-01-03T05:36:16.936Z,8.75
2023-01-03T05:38:44.004Z,8.00
2023-01-03T05:41:14.181Z,8.50
2023-01-03T05:43:41.186Z,7.75
2023-01-03T05:46:08.386Z,9.25
2023-01-03T05:48:35.395Z,9.00
2023-01-03T05:51:02.338Z,10.50
2023-01-03T05:53:29.279Z,6.50
2023-01-03T05:55:56.157Z,7.00
2023-01-03T05:58:23.160Z,6.00
2023-01-03T06:00:50.245Z,6.00
2023-01-03T06:03:17.206Z,7.00
2023-01-03T06:05:50.136Z,6.75
2023-01-03T06:08:17.393Z,8.00
2023-01-03T06:10:44.371Z,5.25
2023-01-03T06:13:11.858Z,3.00
2023-01-03T06:15:38.982Z,6.00
2023-01-03T06:18:05.866Z,5.50
2023-01-03T06:20:33.127Z,7.25
2023-01-03T06:23:00.163Z,3.25
2023-01-03T06:25:27.440Z,3.25
2023-01-03T06:27:55.982Z,3.00
2023-01-03T06:30:22.957Z,2.50
2023-01-03T06:32:49.852Z,5.00
2023-01-03T06:35:16.903Z,7.75
2023-01-03T06:37:43.881Z,6.00
2023-01-03T06:40:11.187Z,7.00
2023-01-03T06:42:43.268Z,3.25
2023-01-03T06:45:32.100Z,5.50
2023-01-03T06:48:17.964Z,5.50
2023-01-03T06:51:03.935Z,5.50
2023-01-03T06:53:35.436Z,3.75
2023-01-03T06:56:03.716Z,4.00
2023-01-03T06:58:31.135Z,2.00
2023-01-03T07:01:00.360Z,5.00
2023-01-03T07:03:27.327Z,2.50
2023-01-03T07:05:54.519Z,3.00
2023-01-03T07:08:21.501Z,2.50
2023-01-03T07:10:48.456Z,9.75
2023-01-03T07:13:34.014Z,16.00
2023-01-03T07:16:03.010Z,14.75
2023-01-03T07:18:30.090Z,16.00
2023-01-03T07:20:57.005Z,16.50
2023-01-03T07:23:24.035Z,16.00
2023-01-03T07:25:55.197Z,18.75
2023-01-03T07:28:22.119Z,16.25
2023-01-03T07:30:49.107Z,13.75
2023-01-03T07:33:17.384Z,12.00
2023-01-03T07:35:45.358Z,17.00
2023-01-03T07:38:13.836Z,16.25
2023-01-03T07:40:40.835Z,15.50
2023-01-03T07:43:29.518Z,14.00
2023-01-03T07:45:56.523Z,17.00
2023-01-03T07:48:23.539Z,15.75
2023-01-03T07:50:50.468Z,17.00
2023-01-03T07:53:18.219Z,16.00
2023-01-03T07:55:48.018Z,15.00
2023-01-03T07:58:15.075Z,19.00
2023-01-03T08:00:42.412Z,16.25
2023-01-03T08:03:11.362Z,17.00
2023-01-03T08:05:39.403Z,13.50
2023-01-03T08:08:06.800Z,10.75
2023-01-03T08:10:52.547Z,13.00
2023-01-03T08:13:19.990Z,9.25
2023-01-03T08:15:55.773Z,9.25
2023-01-03T08:18:27.486Z,11.50
2023-01-03T08:20:57.547Z,15.25
2023-01-03T08:23:25.881Z,15.25
2023-01-03T08:25:59.423Z,16.00
2023-01-03T08:28:26.339Z,16.00
2023-01-03T08:30:53.282Z,20.50
2023-01-03T08:33:20.612Z,22.00
2023-01-03T08:36:11.479Z,19.00
2023-01-03T08:38:48.545Z,18.75
2023-01-03T08:41:20.909Z,9.00
2023-01-03T08:43:49.471Z,16.00
2023-01-03T08:46:18.283Z,17.50
2023-01-03T08:48:45.798Z,13.00
2023-01-03T08:51:12.792Z,16.00
2023-01-03T08:53:39.817Z,12.50
2023-01-03T08:56:07.278Z,11.00
2023-01-03T08:58:34.141Z,12.00
2023-01-03T09:01:05.121Z,9.00
2023-01-03T09:03:32.500Z,9.50
2023-01-03T09:06:03.595Z,9.00
2023-01-03T09:08:32.005Z,9.50
2023-01-03T09:10:59.188Z,9.00
2023-01-03T09:13:25.984Z,11.00
2023-01-03T09:16:01.074Z,10.25
2023-01-03T09:18:27.896Z,10.00
2023-01-03T09:20:54.703Z,9.00
2023-01-03T09:23:21.567Z,9.25
2023-01-03T09:25:48.397Z,7.75
2023-01-03T09:28:15.275Z,7.75
2023-01-03T09:30:44.419Z,9.00
2023-01-03T09:33:11.320Z,7.50
2023-01-03T09:35:39.768Z,9.00
2023-01-03T09:38:07.156Z,6.25
2023-01-03T09:40:40.988Z,7.25
2023-01-03T09:43:24.778Z,7.50
2023-01-03T09:45:58.792Z,9.00
2023-01-03T09:48:38.447Z,8.00
2023-01-03T09:51:30.387Z,6.00
2023-01-03T09:54:16.745Z,8.00
2023-01-03T09:57:02.250Z,10.50
2023-01-03T09:59:55.144Z,10.75
2023-01-03T10:02:59.576Z,9.00
2023-01-03T10:05:36.600Z,9.00
2023-01-03T10:08:15.193Z,8.00
2023-01-03T10:11:09.157Z,14.25
2023-01-03T10:13:55.140Z,13.75
2023-01-03T10:16:38.053Z,12.25
2023-01-03T10:19:10.491Z,12.75
2023-01-03T10:21:52.258Z,11.00
2023-01-03T10:24:30.650Z,11.00
2023-01-03T10:27:09.065Z,13.00
2023-01-03T10:29:36.146Z,10.00
2023-01-03T10:32:28.645Z,12.25
2023-01-03T10:35:14.132Z,11.00
2023-01-03T10:37:41.540Z,10.75
2023-01-03T10:40:09.241Z,14.00
2023-01-03T10:42:38.209Z,8.00
2023-01-03T10:45:23.005Z,11.00
2023-01-03T10:48:00.971Z,14.25
2023-01-03T10:50:29.312Z,13.50
2023-01-03T10:53:05.693Z,12.25
2023-01-03T10:55:35.653Z,13.50
2023-01-03T10:58:12.908Z,11.50
2023-01-03T11:00:39.867Z,13.25
2023-01-03T11:03:10.371Z,14.00
2023-01-03T11:05:39.253Z,12.50
2023-01-03T11:08:15.721Z,10.50
2023-01-03T11:10:59.797Z,12.00
2023-01-03T11:13:32.712Z,11.25
2023-01-03T11:16:02.466Z,7.50
2023-01-03T11:18:31.227Z,14.00
2023-01-03T11:21:04.751Z,9.75
2023-01-03T11:23:49.677Z,10.75
2023-01-03T11:27:02.845Z,9.00
2023-01-03T11:29:48.336Z,10.00
2023-01-03T11:32:27.269Z,9.75
2023-01-03T11:35:26.361Z,9.50
2023-01-03T11:38:13.997Z,9.00
2023-01-03T11:41:05.739Z,10.00
2023-01-03T11:43:44.490Z,10.25
2023-01-03T11:46:14.085Z,9.75
2023-01-03T11:48:59.607Z,10.00
2023-01-03T11:51:54.197Z,8.75
2023-01-03T11:55:08.993Z,8.75
2023-01-03T11:57:45.316Z,9.50
2023-01-03T12:00:50.885Z,10.00
2023-01-03T12:03:49.958Z,9.00
2023-01-03T12:06:32.209Z,9.25
2023-01-03T12:09:01.587Z,9.00
2023-01-03T12:11:47.294Z,9.50
2023-01-03T12:14:26.532Z,12.50
2023-01-03T12:17:22.337Z,10.75
2023-01-03T12:19:57.466Z,7.50
2023-01-03T12:22:44.870Z,8.25
2023-01-03T12:25:25.572Z,7.00
2023-01-03T12:28:10.666Z,8.25
2023-01-03T12:30:50.411Z,8.25
2023-01-03T12:33:19.947Z,9.00
2023-01-03T12:36:01.894Z,8.50
2023-01-03T12:38:41.572Z,7.25
2023-01-03T12:41:28.508Z,8.75
2023-01-03T12:44:07.411Z,9.00
2023-01-03T12:46:42.002Z,8.00
2023-01-03T12:49:22.180Z,10.00
2023-01-03T12:51:49.006Z,8.75
2023-01-03T12:54:42.628Z,7.50
2023-01-03T12:57:21.477Z,10.75
2023-01-03T13:00:20.989Z,9.00
2023-01-03T13:03:26.152Z,8.50
2023-01-03T13:06:05.538Z,9.25
2023-01-03T13:08:46.483Z,7.75
2023-01-03T13:11:42.689Z,9.50
2023-01-03T13:14:22.793Z,9.00
2023-01-03T13:16:51.473Z,8.00
2023-01-03T13:19:24.325Z,8.25
2023-01-03T13:21:54.015Z,8.00
2023-01-03T13:24:45.290Z,7.00
2023-01-03T13:27:18.269Z,7.00
2023-01-03T13:29:50.771Z,7.50
2023-01-03T13:32:26.401Z,9.50
2023-01-03T13:34:59.129Z,8.25
2023-01-03T13:37:27.343Z,10.00
2023-01-03T13:40:23.412Z,9.00
2023-01-03T13:43:10.921Z,8.50
2023-01-03T13:45:37.656Z,11.00
2023-01-03T13:48:32.693Z,10.00
2023-01-03T13:51:14.716Z,10.00
2023-01-03T13:54:21.963Z,8.00
2023-01-03T13:56:48.740Z,7.50
2023-01-03T13:59:15.613Z,7.50
2023-01-03T14:01:57.858Z,11.25
2023-01-03T14:04:33.895Z,13.00
2023-01-03T14:07:21.800Z,10.00
2023-01-03T14:10:15.191Z,12.50
2023-01-03T14:12:51.121Z,10.50
2023-01-03T14:15:25.853Z,10.00
2023-01-03T14:18:00.016Z,9.75
2023-01-03T14:20:31.259Z,8.25
2023-01-03T14:23:23.927Z,9.50
2023-01-03T14:25:52.895Z,8.50
2023-01-03T14:28:23.418Z,9.50
2023-01-03T14:30:56.324Z,10.00
2023-01-03T14:33:25.917Z,9.00
2023-01-03T14:36:05.559Z,11.25
2023-01-03T14:38:34.403Z,9.00
2023-01-03T14:41:01.762Z,8.50
2023-01-03T14:43:33.108Z,9.00
2023-01-03T14:46:08.572Z,13.25
2023-01-03T14:48:35.392Z,10.00
2023-01-03T14:51:04.752Z,12.75
2023-01-03T14:53:33.577Z,12.00
2023-01-03T14:56:01.497Z,10.00
2023-01-03T14:58:42.719Z,10.50
2023-01-03T15:01:11.907Z,8.25
2023-01-03T15:03:43.199Z,10.00
2023-01-03T15:06:23.395Z,8.75
2023-01-03T15:08:56.327Z,7.00
2023-01-03T15:11:28.476Z,9.50
2023-01-03T15:14:05.194Z,8.00
2023-01-03T15:16:37.832Z,14.00
2023-01-03T15:19:16.071Z,12.50
2023-01-03T15:21:43.420Z,9.50
2023-01-03T15:24:14.804Z,12.00
2023-01-03T15:26:48.602Z,13.25
2023-01-03T15:29:25.622Z,14.25
2023-01-03T15:31:55.739Z,14.25
2023-01-03T15:34:39.185Z,12.00
2023-01-03T15:37:17.722Z,10.25
2023-01-03T15:39:56.135Z,11.00
2023-01-03T15:42:58.025Z,9.00
2023-01-03T15:45:29.284Z,4.00
2023-01-03T15:48:01.489Z,9.75
2023-01-03T15:50:44.088Z,12.50
2023-01-03T15:53:21.875Z,12.00
2023-01-03T15:55:51.639Z,13.50
2023-01-03T15:58:18.717Z,12.00
2023-01-03T16:00:45.651Z,11.50
2023-01-03T16:03:17.986Z,12.00
2023-01-03T16:05:45.555Z,8.50
2023-01-03T16:08:25.597Z,14.75
2023-01-03T16:10:53.408Z,16.50
2023-01-03T16:13:22.150Z,13.75
2023-01-03T16:15:50.927Z,14.75
2023-01-03T16:18:24.365Z,12.50
2023-01-03T16:20:51.303Z,9.00
2023-01-03T16:23:30.435Z,11.00
2023-01-03T16:25:57.915Z,8.00
2023-01-03T16:28:25.915Z,6.75
2023-01-03T16:31:16.461Z,5.50
2023-01-03T16:33:46.247Z,5.50
2023-01-03T16:36:39.608Z,6.00
2023-01-03T16:39:21.538Z,4.00
2023-01-03T16:42:07.935Z,11.50
2023-01-03T16:44:37.027Z,15.00
2023-01-03T16:47:10.220Z,9.00
2023-01-03T16:49:37.595Z,16.00
2023-01-03T16:52:04.743Z,18.75
2023-01-03T16:54:31.878Z,15.50
2023-01-03T16:56:58.796Z,16.00
2023-01-03T16:59:25.839Z,14.00
2023-01-03T17:01:52.968Z,13.50
2023-01-03T17:04:19.978Z,9.00
2023-01-03T17:06:46.957Z,13.00
2023-01-03T17:09:30.432Z,10.50
2023-01-03T17:11:57.539Z,9.00
2023-01-03T17:14:24.733Z,13.75
2023-01-03T17:16:51.703Z,16.00
2023-01-03T17:22:15.753Z,8.50
2023-01-03T17:24:43.747Z,7.25
2023-01-03T17:27:27.828Z,10.50
2023-01-03T17:30:02.698Z,6.50
2023-01-03T17:32:30.316Z,3.00
2023-01-03T17:34:59.346Z,3.25
2023-01-03T17:37:26.636Z,4.00
2023-01-03T17:39:56.893Z,4.00
2023-01-03T17:42:25.912Z,3.00
2023-01-03T17:45:12.045Z,0.00
2023-01-03T17:48:02.440Z,2.00
2023-01-03T17:50:31.081Z,0.50
2023-01-03T17:52:59.884Z,3.50
2023-01-03T17:55:29.321Z,6.75
2023-01-03T17:57:57.568Z,3.50
2023-01-03T18:00:26.821Z,3.50
2023-01-03T18:02:55.763Z,3.50
2023-01-03T18:05:28.986Z,3.25
2023-01-03T18:07:58.802Z,3.25
2023-01-03T18:10:53.871Z,6.00
2023-01-03T18:13:28.309Z,6.75
2023-01-03T18:15:56.012Z,3.50
2023-01-03T18:18:25.133Z,7.25
2023-01-03T18:20:52.951Z,4.00
2023-01-03T18:23:32.218Z,7.50
2023-01-03T18:26:03.239Z,11.25
2023-01-03T18:28:30.396Z,4.75
2023-01-03T18:30:58.097Z,9.25
2023-01-03T18:33:25.855Z,3.50
2023-01-03T18:35:53.459Z,11.00
2023-01-03T18:38:27.415Z,7.50
2023-01-03T18:41:00.700Z,19.50
2023-01-03T18:43:33.432Z,12.25
2023-01-03T18:46:00.651Z,21.00
2023-01-03T18:48:28.055Z,15.75
2023-01-03T18:50:58.922Z,18.25
2023-01-03T18:53:31.705Z,32.00
2023-01-03T18:55:59.440Z,33.00
2023-01-03T18:58:34.253Z,32.00
2023-01-03T19:01:01.679Z,33.00
2023-01-03T19:03:32.103Z,29.33
2023-01-03T19:06:01.284Z,26.00
2023-01-03T19:08:32.663Z,13.67
2023-01-03T19:11:08.695Z,22.25
2023-01-03T19:13:56.311Z,16.00
2023-01-03T19:16:28.526Z,13.25
2023-01-03T19:18:57.143Z,14.25
2023-01-03T19:21:26.820Z,13.75
2023-01-03T19:24:20.897Z,20.25
2023-01-03T19:26:53.138Z,30.00
2023-01-03T19:29:24.062Z,30.00
2023-01-03T19:31:54.488Z,26.75
2023-01-03T19:34:24.280Z,25.50
2023-01-03T19:36:52.475Z,30.00
2023-01-03T19:39:25.198Z,24.25
2023-01-03T19:42:17.146Z,22.75
2023-01-03T19:44:44.494Z,24.25
2023-01-03T19:47:18.695Z,28.00
2023-01-03T19:49:48.402Z,25.00
2023-01-03T19:52:16.945Z,27.50
2023-01-03T19:54:44.737Z,24.00
2023-01-03T19:57:33.829Z,22.75
2023-01-03T20:00:03.855Z,22.50
2023-01-03T20:02:35.996Z,22.50
2023-01-03T20:05:03.728Z,17.00
2023-01-03T20:07:30.793Z,13.00
2023-01-03T20:09:57.744Z,20.00
2023-01-03T20:12:26.726Z,17.75
2023-01-03T20:15:00.012Z,14.25
2023-01-03T20:17:31.400Z,12.25
2023-01-03T20:19:58.284Z,13.75
2023-01-03T20:23:02.420Z,14.25
2023-01-03T20:25:30.368Z,7.00
2023-01-03T20:27:58.804Z,12.75
2023-01-03T20:30:29.133Z,7.75
2023-01-03T20:32:56.835Z,2.50
2023-01-03T20:38:13.207Z,3.25
2023-01-03T20:40:40.249Z,6.25
2023-01-03T20:43:14.075Z,12.00
2023-01-03T20:45:41.190Z,14.00
2023-01-03T20:48:18.046Z,13.00
2023-01-03T20:50:50.342Z,12.00
2023-01-03T20:53:20.058Z,10.00
2023-01-03T20:55:48.230Z,8.00
2023-01-03T20:58:17.479Z,8.00
2023-01-03T21:00:45.902Z,6.75
2023-01-03T21:03:13.377Z,9.25
2023-01-03T21:05:40.522Z,6.50
2023-01-03T21:08:30.855Z,5.75
2023-01-03T21:10:57.852Z,7.75
2023-01-03T21:13:24.790Z,6.50
2023-01-03T21:15:51.804Z,7.00
2023-01-03T21:18:19.310Z,7.25
2023-01-03T21:20:46.621Z,7.75
2023-01-03T21:23:22.299Z,8.50
2023-01-03T21:25:50.104Z,5.00
2023-01-03T21:28:17.029Z,10.00
2023-01-03T21:30:44.019Z,9.75
2023-01-03T21:33:18.133Z,7.50
2023-01-03T21:35:46.444Z,7.25
2023-01-03T21:38:13.503Z,3.50
2023-01-03T21:40:40.706Z,2.00
2023-01-03T21:43:08.009Z,16.00
2023-01-03T21:45:48.422Z,15.75
2023-01-03T21:48:18.021Z,23.25
2023-01-03T21:50:47.130Z,20.25
2023-01-03T21:53:16.265Z,21.00
2023-01-03T21:55:43.415Z,24.00
2023-01-03T21:58:15.030Z,25.33
2023-01-03T22:00:42.670Z,25.00
2023-01-03T22:03:35.266Z,25.00
2023-01-03T22:06:13.990Z,19.00
2023-01-03T22:08:41.218Z,15.75
2023-01-03T22:11:08.430Z,31.00
2023-01-03T22:13:36.270Z,36.00
2023-01-03T22:16:06.232Z,38.67
2023-01-03T22:18:33.975Z,32.67
2023-01-03T22:21:07.892Z,25.67
2023-01-03T22:23:35.143Z,26.00
2023-01-03T22:26:03.620Z,18.00
2023-01-03T22:28:38.416Z,16.00
2023-01-03T22:31:14.364Z,30.00
2023-01-03T22:33:41.434Z,40.25
2023-01-03T22:36:08.837Z,40.00
2023-01-03T22:38:36.785Z,36.00
2023-01-03T22:41:10.623Z,32.00
2023-01-03T22:43:38.146Z,36.67
2023-01-03T22:46:13.403Z,36.67
2023-01-03T22:48:40.923Z,31.00
2023-01-03T22:51:12.030Z,27.67
2023-01-03T22:53:41.376Z,24.00
2023-01-03T22:56:15.381Z,20.33
2023-01-03T22:58:43.376Z,25.00
2023-01-03T23:01:15.460Z,26.67
2023-01-03T23:03:43.617Z,25.33
2023-01-03T23:06:13.266Z,21.00
2023-01-03T23:08:41.351Z,15.00
2023-01-03T23:11:34.001Z,18.33
2023-01-03T23:14:03.853Z,21.33
2023-01-03T23:16:32.520Z,23.67
2023-01-03T23:19:02.200Z,15.00
2023-01-03T23:21:29.667Z,10.67
2023-01-03T23:23:56.704Z,14.00
2023-01-03T23:26:24.844Z,14.00
2023-01-03T23:28:59.651Z,15.33
2023-01-03T23:31:27.863Z,13.67
2023-01-03T23:33:56.294Z,19.33
2023-01-03T23:36:23.949Z,27.33
2023-01-03T23:38:53.102Z,26.33
2023-01-03T23:41:20.195Z,15.67
2023-01-03T23:43:47.446Z,18.00
2023-01-03T23:46:16.755Z,19.33
2023-01-03T23:48:43.720Z,9.00
2023-01-03T23:51:12.501Z,9.75
2023-01-03T23:53:42.015Z,10.00
2023-01-03T23:56:15.947Z,9.25
2023-01-03T23:58:43.190Z,5.00
